AKDT,Max TemperatureF,Mean TemperatureF,Min TemperatureF,Max Dew PointF,MeanDew PointF,Min DewpointF,Max Humidity, Mean Humidity, Min Humidity, Max Sea Level PressureIn, Mean Sea Level PressureIn, Min Sea Level PressureIn, Max VisibilityMiles, Mean VisibilityMiles, Min VisibilityMiles, Max Wind SpeedMPH, Mean Wind SpeedMPH, Max Gust SpeedMPH,PrecipitationIn, CloudCover, Events, WindDirDegrees
2013-10-1,52,42,33,38,29,23,76,58,39,29.82,29.74,29.65,10,10,8,6,2,,0.02,5,Rain,326
2013-10-2,48,45,42,42,39,37,89,81,71,29.83,29.81,29.79,10,10,9,6,2,,0.18,7,Rain,358
2013-10-3,52,46,42,40,38,36,89,76,56,29.79,29.58,29.46,10,10,10,10,3,16,0.00,7,,360
2013-10-4,55,46,36,39,34,32,86,69,45,29.75,29.62,29.48,10,10,10,6,1,,0.00,3,,320
2013-10-5,50,40,33,40,34,28,86,76,63,29.79,29.76,29.70,10,10,8,6,1,,0.00,4,,41
2013-10-6,46,43,41,40,39,37,89,83,79,29.73,29.71,29.69,10,9,4,6,2,,0.32,8,Rain,161
2013-10-7,51,44,37,38,35,32,87,73,58,29.86,29.80,29.72,10,10,10,7,2,,0.01,6,Rain,45
2013-10-8,52,46,41,40,37,34,89,73,50,29.67,29.24,29.06,10,10,5,14,8,37,0.36,8,Rain,262
2013-10-9,52,45,39,37,31,24,82,61,39,29.72,29.49,29.10,10,10,10,13,7,20,0.00,3,,181
2013-10-10,43,36,30,36,30,22,87,74,55,29.74,29.72,29.70,10,9,5,7,2,,0.13,6,Rain,10
2013-10-11,46,42,37,40,36,34,93,84,71,29.88,29.81,29.73,10,10,8,7,2,,0.07,7,Rain,353
2013-10-12,52,48,44,39,38,36,79,71,61,29.83,29.77,29.63,10,10,10,12,6,16,0.01,7,Rain,312
2013-10-13,48,45,42,40,38,34,89,78,66,29.68,29.55,29.48,10,9,5,14,4,20,0.29,7,Rain,257
2013-10-14,55,48,41,39,34,31,82,60,43,30.04,29.88,29.70,10,10,10,12,4,21,0.01,7,Rain,137
2013-10-15,60,54,51,37,35,32,54,47,42,30.09,30.04,30.01,10,10,10,17,11,31,0.00,8,Rain,142
2013-10-16,59,52,46,41,38,33,80,55,39,30.23,30.17,30.10,10,10,10,10,7,24,0.00,7,,235
2013-10-17,53,49,45,43,41,39,86,77,64,30.13,29.97,29.79,10,10,9,15,3,20,0.11,7,Rain,313
2013-10-18,55,50,44,41,34,28,89,57,35,29.79,29.72,29.61,10,10,10,12,6,26,0.11,7,Rain,188
2013-10-19,55,49,44,38,32,29,79,52,38,29.65,29.49,29.37,10,10,10,15,8,23,0.00,5,Rain,182
2013-10-20,53,48,44,35,28,25,68,44,37,29.94,29.83,29.67,10,10,10,13,8,22,0.00,5,Rain,153
2013-10-21,48,42,37,36,34,31,82,72,58,30.05,30.02,29.96,10,10,10,6,2,,0.00,5,Rain,335
2013-10-22,48,40,35,36,33,28,93,76,58,30.20,30.13,30.05,10,9,0,7,1,,0.00,6,Fog-Rain,10
2013-10-23,39,34,28,33,27,21,92,75,57,30.04,29.86,29.77,10,8,0,7,4,,0.00,3,Fog,28
2013-10-24,37,32,28,30,25,21,79,71,61,29.83,29.77,29.68,10,10,10,10,3,,0.00,7,,318
2013-10-25,48,40,32,34,31,27,85,73,50,30.17,29.93,29.75,10,10,8,7,1,,0.00,4,,354
2013-10-26,42,34,28,33,29,25,93,80,67,30.45,30.37,30.20,10,8,0,7,1,,0.00,2,Fog,17
2013-10-27,42,39,36,38,34,27,93,81,65,30.29,29.99,29.61,10,9,6,12,4,,0.32,8,Rain,330
2013-10-28,51,44,39,43,38,35,87,78,59,29.61,29.36,29.21,10,8,2,21,9,29,0.75,7,Rain,243
2013-10-29,51,46,39,35,32,29,77,59,48,29.57,29.49,29.37,10,10,10,17,9,31,0.00,4,,341
2013-10-30,45,41,37,33,32,31,83,72,60,29.34,29.16,29.11,10,10,10,4,0,,0.00,6,,306
2013-10-31,45,41,37,39,36,33,89,81,76,29.62,29.38,29.19,10,10,10,5,1,,0.05,8,Rain,184